createdAt,value
2022-10-18T00:04:43.753Z,85.02
2022-10-18T00:09:50.309Z,85.16
2022-10-18T00:15:01.830Z,85.23
2022-10-18T00:20:15.983Z,85.12
2022-10-18T00:25:20.126Z,85.34
2022-10-18T00:30:25.664Z,85.37
2022-10-18T00:35:33.332Z,85.53
2022-10-18T00:40:46.696Z,85.58
2022-10-18T00:45:54.749Z,85.49
2022-10-18T00:50:58.513Z,85.30
2022-10-18T00:56:12.386Z,85.28
2022-10-18T01:05:21.168Z,85.29
2022-10-18T01:10:57.747Z,85.29
2022-10-18T01:16:21.072Z,85.75
2022-10-18T01:22:07.886Z,85.73
2022-10-18T01:27:34.199Z,85.54
2022-10-18T01:32:54.931Z,85.41
2022-10-18T01:38:12.533Z,85.32
2022-10-18T01:43:26.238Z,85.19
2022-10-18T01:48:36.812Z,85.22
2022-10-18T01:53:40.671Z,85.21
2022-10-18T01:59:09.138Z,85.03
2022-10-18T02:04:32.566Z,85.00
2022-10-18T02:09:58.989Z,84.98
2022-10-18T02:15:07.635Z,85.08
2022-10-18T02:20:16.727Z,84.82
2022-10-18T02:25:28.113Z,84.81
2022-10-18T02:31:03.141Z,84.86
2022-10-18T02:36:46.193Z,84.76
2022-10-18T02:41:58.647Z,84.71
2022-10-18T02:47:04.151Z,84.45
2022-10-18T02:52:16.052Z,84.48
2022-10-18T02:57:19.357Z,84.49
2022-10-18T03:07:27.717Z,84.79
2022-10-18T03:12:40.662Z,85.23
2022-10-18T03:18:10.165Z,85.98
2022-10-18T03:23:17.511Z,85.84
2022-10-18T03:28:23.674Z,85.37
2022-10-18T03:33:33.325Z,84.99
2022-10-18T03:38:38.837Z,84.95
2022-10-18T03:43:57.070Z,84.81
2022-10-18T03:49:06.244Z,84.54
2022-10-18T03:54:15.265Z,84.13
2022-10-18T03:59:20.991Z,84.17
2022-10-18T04:04:24.027Z,84.18
2022-10-18T04:09:34.322Z,84.12
2022-10-18T04:14:52.501Z,83.85
2022-10-18T04:19:56.946Z,83.65
2022-10-18T04:25:04.754Z,83.71
2022-10-18T04:30:16.500Z,83.35
2022-10-18T04:35:27.362Z,82.79
2022-10-18T04:40:39.986Z,82.99
2022-10-18T04:45:52.756Z,83.19
2022-10-18T04:51:05.622Z,83.19
2022-10-18T04:56:12.395Z,83.14
2022-10-18T05:01:18.529Z,82.72
2022-10-18T05:06:28.227Z,82.90
2022-10-18T05:11:35.840Z,82.91
2022-10-18T05:16:47.156Z,82.79
2022-10-18T05:21:56.053Z,82.81
2022-10-18T05:27:01.116Z,82.72
2022-10-18T05:32:04.777Z,82.53
2022-10-18T05:37:15.870Z,82.40
2022-10-18T05:42:31.379Z,82.40
2022-10-18T05:47:38.372Z,82.21
2022-10-18T05:52:46.632Z,82.30
2022-10-18T05:57:54.603Z,82.13
2022-10-18T06:03:05.377Z,81.99
2022-10-18T06:08:18.039Z,81.86
2022-10-18T06:13:30.071Z,81.98
2022-10-18T06:18:36.883Z,82.17
2022-10-18T06:23:56.046Z,81.97
2022-10-18T06:29:04.237Z,81.86
2022-10-18T06:34:22.719Z,81.23
2022-10-18T06:39:30.431Z,81.03
2022-10-18T06:44:36.247Z,79.92
2022-10-18T06:49:43.256Z,79.03
2022-10-18T06:54:48.762Z,78.84
2022-10-18T06:59:58.233Z,78.84
2022-10-18T07:05:03.991Z,78.46
2022-10-18T07:10:13.122Z,78.04
2022-10-18T07:15:23.286Z,77.58
2022-10-18T07:20:41.030Z,76.49
2022-10-18T07:25:56.017Z,76.25
2022-10-18T07:31:12.674Z,76.76
2022-10-18T07:36:18.318Z,76.66
2022-10-18T07:41:30.259Z,76.56
2022-10-18T07:46:36.672Z,76.09
2022-10-18T07:51:48.731Z,73.55
2022-10-18T07:56:57.652Z,71.47
2022-10-18T08:02:06.430Z,69.54
2022-10-18T08:07:15.229Z,68.30
2022-10-18T08:12:25.129Z,66.94
2022-10-18T08:17:34.819Z,66.08
2022-10-18T08:28:16.448Z,63.62
2022-10-18T08:33:25.232Z,62.18
2022-10-18T08:38:36.264Z,62.69
2022-10-18T08:44:20.830Z,60.47
2022-10-18T08:49:51.478Z,61.08
2022-10-18T08:55:12.580Z,59.85
2022-10-18T09:00:32.895Z,60.44
2022-10-18T09:06:05.721Z,59.17
2022-10-18T09:11:39.501Z,58.50
2022-10-18T09:17:17.209Z,59.16
2022-10-18T09:22:52.836Z,60.74
2022-10-18T09:28:37.589Z,57.89
2022-10-18T09:34:16.283Z,56.69
2022-10-18T09:45:03.574Z,58.06
2022-10-18T09:50:29.585Z,57.09
2022-10-18T09:55:56.527Z,58.19
2022-10-18T10:01:01.024Z,60.09
2022-10-18T10:06:41.486Z,57.98
2022-10-18T10:12:00.132Z,58.37
2022-10-18T10:17:30.406Z,57.78
2022-10-18T10:22:40.522Z,57.77
2022-10-18T10:27:48.116Z,57.87
2022-10-18T10:33:02.186Z,57.67
2022-10-18T10:38:11.259Z,58.25
2022-10-18T10:49:38.529Z,57.56
2022-10-18T10:54:51.192Z,55.31
2022-10-18T11:05:34.594Z,55.01
2022-10-18T11:11:30.980Z,53.44
2022-10-18T11:17:18.785Z,53.61
2022-10-18T11:22:42.668Z,55.75
2022-10-18T11:28:13.714Z,56.06
2022-10-18T11:34:10.320Z,56.25
2022-10-18T11:39:48.946Z,56.68
2022-10-18T11:45:22.085Z,55.54
2022-10-18T11:57:12.821Z,55.84
2022-10-18T12:02:59.183Z,55.14
2022-10-18T12:08:22.213Z,55.90
2022-10-18T12:13:42.799Z,55.57
2022-10-18T12:19:07.800Z,56.08
2022-10-18T12:24:34.240Z,57.93
2022-10-18T12:30:03.577Z,59.48
2022-10-18T12:35:25.701Z,58.95
2022-10-18T12:40:57.290Z,58.97
2022-10-18T12:52:12.144Z,59.51
2022-10-18T13:03:27.578Z,59.29
2022-10-18T13:08:52.822Z,59.76
2022-10-18T13:20:27.912Z,62.41
2022-10-18T13:25:46.185Z,62.71
2022-10-18T13:31:22.538Z,64.11
2022-10-18T13:36:50.308Z,64.46
2022-10-18T13:41:57.711Z,64.36
2022-10-18T13:47:16.162Z,64.37
2022-10-18T13:53:23.831Z,64.50
2022-10-18T13:59:38.149Z,64.94
2022-10-18T14:05:25.381Z,66.10
2022-10-18T14:11:26.033Z,66.91
2022-10-18T14:16:43.407Z,66.97
2022-10-18T14:22:17.879Z,67.99
2022-10-18T14:27:29.709Z,68.53
2022-10-18T14:32:36.495Z,69.14
2022-10-18T14:37:53.619Z,69.45
2022-10-18T14:48:27.909Z,70.59
2022-10-18T14:53:44.628Z,70.50
2022-10-18T14:59:04.562Z,71.35
2022-10-18T15:04:14.629Z,71.61
2022-10-18T15:09:25.893Z,72.48
2022-10-18T15:14:46.930Z,72.71
2022-10-18T15:20:27.652Z,73.32
2022-10-18T15:25:43.887Z,73.22
2022-10-18T15:30:48.048Z,72.93
2022-10-18T15:35:55.248Z,73.29
2022-10-18T15:41:04.809Z,73.97
2022-10-18T15:46:33.838Z,75.11
2022-10-18T15:52:18.687Z,74.51
2022-10-18T15:57:37.216Z,74.00
2022-10-18T16:03:07.891Z,74.29
2022-10-18T16:08:22.573Z,74.52
2022-10-18T16:13:29.894Z,74.53
2022-10-18T16:18:39.982Z,74.74
2022-10-18T16:23:42.920Z,74.96
2022-10-18T16:28:49.554Z,74.78
2022-10-18T16:33:59.975Z,75.04
2022-10-18T16:39:14.729Z,75.47
2022-10-18T16:44:29.791Z,75.78
2022-10-18T16:49:35.479Z,76.48
2022-10-18T16:54:42.208Z,77.03
2022-10-18T16:59:48.924Z,77.35
2022-10-18T17:05:01.309Z,77.73
2022-10-18T17:10:11.361Z,77.95
2022-10-18T17:15:32.813Z,78.07
2022-10-18T17:20:41.399Z,78.29
2022-10-18T17:26:04.831Z,78.61
2022-10-18T17:31:19.614Z,78.99
2022-10-18T17:36:33.740Z,80.38
2022-10-18T17:41:49.156Z,79.64
2022-10-18T17:46:58.912Z,79.94
2022-10-18T17:52:15.583Z,80.80
2022-10-18T17:57:21.282Z,80.89
2022-10-18T18:02:29.641Z,80.82
2022-10-18T18:07:35.944Z,81.21
2022-10-18T18:12:50.558Z,81.82
2022-10-18T18:18:02.882Z,81.93
2022-10-18T18:23:16.548Z,82.42
2022-10-18T18:28:33.613Z,82.28
2022-10-18T18:34:05.762Z,82.62
2022-10-18T18:39:20.785Z,84.38
2022-10-18T18:44:28.702Z,82.60
2022-10-18T18:49:33.916Z,82.44
2022-10-18T18:54:36.140Z,82.73
2022-10-18T18:59:53.402Z,82.79
2022-10-18T19:05:10.611Z,82.86
2022-10-18T19:10:23.383Z,83.17
2022-10-18T19:15:31.572Z,83.25
2022-10-18T19:20:45.786Z,83.37
2022-10-18T19:25:57.848Z,83.21
2022-10-18T19:31:03.982Z,82.99
2022-10-18T19:36:14.192Z,83.00
2022-10-18T19:41:38.325Z,83.52
2022-10-18T19:46:44.681Z,82.95
2022-10-18T19:51:54.904Z,83.51
2022-10-18T19:57:05.617Z,83.57
2022-10-18T20:02:22.742Z,83.95
2022-10-18T20:07:29.515Z,84.04
2022-10-18T20:12:31.616Z,84.13
2022-10-18T20:17:37.187Z,84.36
2022-10-18T20:23:06.807Z,84.24
2022-10-18T20:28:20.396Z,84.45
2022-10-18T20:33:44.029Z,84.83
2022-10-18T20:38:57.754Z,84.83
2022-10-18T20:44:16.050Z,84.86
2022-10-18T20:49:29.542Z,84.75
2022-10-18T20:54:40.829Z,84.50
2022-10-18T21:00:10.513Z,84.48
2022-10-18T21:05:23.609Z,84.67
2022-10-18T21:10:30.307Z,84.75
2022-10-18T21:15:32.920Z,84.44
2022-10-18T21:20:35.689Z,84.68
2022-10-18T21:25:50.971Z,84.32
2022-10-18T21:30:54.400Z,83.81
2022-10-18T21:36:01.185Z,83.78
2022-10-18T21:41:14.236Z,83.07
2022-10-18T21:46:35.672Z,83.07
2022-10-18T21:51:48.084Z,82.96
2022-10-18T21:56:53.976Z,82.86
2022-10-18T22:02:01.671Z,82.81
2022-10-18T22:07:07.091Z,82.75
2022-10-18T22:12:20.290Z,82.52
2022-10-18T22:17:29.125Z,82.49
2022-10-18T22:22:39.773Z,82.28
2022-10-18T22:27:50.648Z,82.46
2022-10-18T22:32:53.491Z,82.29
2022-10-18T22:37:57.043Z,82.31
2022-10-18T22:43:12.880Z,82.16
2022-10-18T22:48:21.042Z,82.04
2022-10-18T22:53:30.169Z,81.47
2022-10-18T22:58:33.376Z,81.60
2022-10-18T23:09:06.659Z,80.95
2022-10-18T23:14:13.397Z,81.15
2022-10-18T23:24:35.614Z,81.43
2022-10-18T23:29:41.356Z,81.66
2022-10-18T23:34:53.043Z,81.62
2022-10-18T23:39:59.584Z,81.84
2022-10-18T23:45:06.836Z,82.17
2022-10-18T23:50:27.316Z,82.17
2022-10-18T23:55:40.050Z,82.35
